Upham, ND (58789)

5:07 AM CDT on April 27, 2015 (GMT -0500)
Deering Mobile Home Estates | | Change Station
CLOSE
Current Station
Personal Weather Station
Location: Deering, ND
Elevation: 1549 ft
Nearby Weather Stations

Elev 1549 ft 48.40 °N, 101.05 °W | Updated 10 minutes ago

Rain
Rain
41.0 °F
Feels Like 36 °F
N
6.8
Wind Variable Wind from NNW

Today
High -- | Low -- °F
--% Chance of Precip.
Yesterday
High -- | Low -- °F
Precip. -- in
6:30 AM 8:51 PM
Waxing Gibbous, 63% visible
Pressure 30.26 in
Visibility 10.0 miles
Clouds Overcast 3900 ft
Windchill 36 °F
Dew Point 39 °F
Humidity 92%
Rainfall 0.05 in
Snow Depth Not available.
UV 0 out of 12
Pollen 7.10 out of 12
Air Quality Not available.
Flu Activity Regional
METAR KMIB 270958Z AUTO 33006KT 10SM -RA OVC039 05/05 A3021 RMK AO2 SLP246 P0004 T00480048 $

More Conditions Fewer Conditions

Pressure 30.26 in
Visibility 10.0 miles
Clouds Overcast 3900 ft
Windchill 36 °F
Dew Point 39 °F
Humidity 92%
Rainfall 0.05 in
Snow Depth Not available.
UV 0 out of 12
Pollen 7.10 out of 12
Air Quality Not available.
Flu Activity Regional
METAR KMIB 270958Z AUTO 33006KT 10SM -RA OVC039 05/05 A3021 RMK AO2 SLP246 P0004 T00480048 $

More Conditions Fewer Conditions

10-Day Weather Forecast

Almanac

Astronomy

Apr. 27, 2015 Rise Set
Actual Time
Civil Twilight
Nautical Twilight
Astronomical Twilight
Moon
Length of Visible Light
Length of Day
Tomorrow will be .
, % of the Moon is Illuminated

Today's Extremes

State Highs State Lows

Community

WunderPhotos

Upload Photos

1,817,278 photos uploaded!

WunderBlogs® & News

Nearby

Air Quality

  Air Quality AQ Index Pollutant
Not available.

Snow Depth

Station Depth Elevation

Earthquake Activity

City Distance Mag. Time & Date
Minimum magnitude displayed is 2.5.

Coastal Water Temperatures

Place Temperature

Stations

Nearby Weather Stations

Station Location Temp. Windchill Dew Point Humidity Wind Precip. Elev Updated Type